Fort Smith Regional Airport
KFSM : now visible

Airfield :











YOU CAN JOIN US ON...

 
LOGIN :

Register | Disclaimer

   EN    FR    IT 

 









Legend :    VFR   Marginal VFR   IFR   Intensive IFR   Very Intensive IFR
Visi :
Ceiling :
>= 8 km
>= 3000ft
5 to 8 km
1000 to 3000 ft
1500m to 5 km
500 to 1000 ft
800 to 1500m
200 to 500 ft
< 800m
< 200 ft
Symbols :   Thunderstorms  Fog  Heavy snow  Heavy precipitations  Wind > 20 kt






- Airport Elevation : 469 ft
- IATA code : FSM


KFSM - Fort Smith Regional

CURRENT METAR :
  • 080953Z AUTO 00000KT 3SM RA BR BKN046 OVC060 14/14 A3015 RMK AO2 SLP209 P0036 T01440144

EXPIRED METARs :
  • 080937Z AUTO 00000KT 3SM +RA BR BKN045 OVC060 14/14 A3015 RMK AO2 P0025 T01440144
  • 080928Z AUTO 10003KT 2 1/2SM +RA BR BKN043 OVC060 14/14 A3015 RMK AO2 P0020 T01440144
  • 080917Z AUTO 00000KT 3SM +RA BR BKN041 OVC055 14/14 A3016 RMK AO2 P0012 T01440144
  • 080901Z AUTO 04003KT 2 1/2SM +RA BR FEW006 BKN031 OVC049 14/14 A3017 RMK AO2 P0003 T01440144
  • 080853Z AUTO 34003KT 1 1/2SM +RA BR SCT006 BKN027 OVC049 14/14 A3017 RMK AO2 VIS 1V2 1/2 RAE0754B21 SLP216 P0030 60031 T01440144 53007
  • 080840Z AUTO 30009KT 1 3/4SM +RA BR BKN005 BKN009 OVC014 14/14 A3018 RMK AO2 RAE0754B21 PRESRR P0008 T01440144
  • 080824Z AUTO 03005KT 10SM -RA SCT005 BKN014 OVC021 14/14 A3015 RMK AO2 RAE0754B21 P0000 T01440144
  • 080753Z AUTO 00000KT 8SM -RA FEW002 OVC019 14/14 A3015 RMK AO2 LTG DSNT N AND NW RAB03 SLP207 P0001 T01390139

TAF KFSM
Valid from the 08 at 08:00 until the 09 at 06:00 UTC


080740Z 0808/0906 VRB04KT 5SM -RA BR OVC003
TEMPO 0808/0809 2SM TSRA BR SCT003 OVC015CB
FM080900 18004KT 2SM -RA BR VCTS OVC003CB
TEMPO 0809/0813 1SM +SHRA BR SCT003 OVC030
FM081400 10005KT 4SM -RA BR OVC005
FM081800 08005KT P6SM OVC007
FM090000 12006KT 4SM BR OVC003
KZME FIR / North America



MET'MAP, your aeronautical weather chart ! - Copyright ORBIFLY December 2007 - Disclaimer

ORBIFLY MET'MAP TEAM :

Programming & Development : Alexandra Zaïnal
Original concept : Baudouin d'Aumeries
Technical & hardware support : Manuel Goepfert
Assistance : Marc-Olivier Méhu




SOURCES & CREDITS :

   NOAA       Earth
Advisory